Time;durP1;ratioP1;P1;durP2;ratioP2;P2;SDS_P1;SDS_P2;PMS_P1;PMS_P2;Temp;Humidity;BMP_temperature;BMP_pressure;BME280_temperature;BME280_humidity;BME280_pressure;Samples;Min_cycle;Max_cycle;Signal;HPM_P1;HPM_P2
2023/03/08 00:00:15;;;;;;;12.95;5.45;;;;;;;;;;4995678;28;20120;-65
2023/03/08 00:02:42;;;;;;;12.52;6.13;;;;;;;;;;5016811;28;20037;-65
2023/03/08 00:05:09;;;;;;;17.65;6.22;;;;;;;;;;5030147;28;20119;-64
2023/03/08 00:07:35;;;;;;;12.68;5.90;;;;;;;;;;5034125;28;20112;-64
2023/03/08 00:10:02;;;;;;;14.95;5.55;;;;;;;;;;5038745;28;20033;-65
2023/03/08 00:12:29;;;;;;;13.68;5.70;;;;;;;;;;5045118;28;20068;-62
2023/03/08 00:14:55;;;;;;;10.30;5.13;;;;;;;;;;5049810;28;20033;-64
2023/03/08 00:17:23;;;;;;;11.32;4.80;;;;;;;;;;5040400;28;20587;-65
2023/03/08 00:19:51;;;;;;;10.85;4.78;;;;;;;;;;5038787;28;20037;-64
2023/03/08 00:22:18;;;;;;;16.77;5.60;;;;;;;;;;5034773;28;20060;-66
2023/03/08 00:24:44;;;;;;;14.85;6.72;;;;;;;;;;5013934;28;20476;-64
2023/03/08 00:27:11;;;;;;;16.75;5.43;;;;;;;;;;5037338;28;20485;-64
2023/03/08 00:29:37;;;;;;;14.70;4.15;;;;;;;;;;5035365;28;20056;-66
2023/03/08 00:32:04;;;;;;;19.05;7.60;;;;;;;;;;5020961;28;20792;-63
2023/03/08 00:34:31;;;;;;;14.48;5.97;;;;;;;;;;5039237;28;20049;-64
2023/03/08 00:36:57;;;;;;;10.70;4.85;;;;;;;;;;5040347;28;20051;-64
2023/03/08 00:39:24;;;;;;;13.48;5.45;;;;;;;;;;5038000;28;20044;-63
2023/03/08 00:41:51;;;;;;;13.13;4.57;;;;;;;;;;5040856;28;20036;-66
2023/03/08 00:44:17;;;;;;;16.85;5.50;;;;;;;;;;5039708;28;20033;-64
2023/03/08 00:46:44;;;;;;;14.90;5.70;;;;;;;;;;5040381;28;20868;-65
2023/03/08 00:49:12;;;;;;;10.32;4.78;;;;;;;;;;5039298;28;20489;-65
2023/03/08 00:51:39;;;;;;;17.02;6.03;;;;;;;;;;5040209;28;20044;-64
2023/03/08 00:54:06;;;;;;;20.90;5.88;;;;;;;;;;5038834;28;20698;-65
2023/03/08 00:56:32;;;;;;;24.15;7.05;;;;;;;;;;5037173;28;20036;-64
2023/03/08 00:58:59;;;;;;;15.05;6.28;;;;;;;;;;5019568;28;20174;-66
2023/03/08 01:01:26;;;;;;;16.75;6.45;;;;;;;;;;5038585;28;20561;-64
2023/03/08 01:03:52;;;;;;;10.43;4.95;;;;;;;;;;5037847;28;20067;-65
2023/03/08 01:06:19;;;;;;;12.70;6.47;;;;;;;;;;5036615;28;20043;-69
2023/03/08 01:08:46;;;;;;;9.23;5.28;;;;;;;;;;5037324;28;20040;-63
2023/03/08 01:11:24;;;;;;;15.15;6.32;;;;;;;;;;5037633;28;20048;-65
2023/03/08 01:13:51;;;;;;;14.93;4.60;;;;;;;;;;5017412;28;20057;-65
2023/03/08 01:16:20;;;;;;;10.90;5.20;;;;;;;;;;5016614;28;20530;-68
2023/03/08 01:18:47;;;;;;;8.27;4.43;;;;;;;;;;5015856;28;20548;-64
2023/03/08 01:21:14;;;;;;;17.25;5.13;;;;;;;;;;5016784;28;20030;-65
2023/03/08 01:23:40;;;;;;;8.63;4.25;;;;;;;;;;5007283;28;20045;-65
2023/03/08 01:26:10;;;;;;;17.40;6.10;;;;;;;;;;5015124;28;20033;-70
2023/03/08 01:28:37;;;;;;;13.55;4.82;;;;;;;;;;5014920;28;20834;-63
2023/03/08 01:31:05;;;;;;;14.25;4.07;;;;;;;;;;5017483;28;20541;-65
2023/03/08 01:33:31;;;;;;;12.68;4.60;;;;;;;;;;5016897;28;20473;-66
2023/03/08 01:35:58;;;;;;;11.40;4.78;;;;;;;;;;5016817;28;20048;-66
2023/03/08 01:38:25;;;;;;;12.80;4.13;;;;;;;;;;5016174;28;20067;-65
2023/03/08 01:40:58;;;;;;;15.00;4.43;;;;;;;;;;5016069;28;20064;-65
2023/03/08 01:43:24;;;;;;;;;;;;;;;;;;5015345;28;20171;-65
2023/03/08 01:46:07;;;;;;;6.22;3.60;;;;;;;;;;5017266;28;19913;-65
2023/03/08 01:48:36;;;;;;;7.70;4.40;;;;;;;;;;5015438;28;20041;-69
2023/03/08 01:51:04;;;;;;;7.35;3.72;;;;;;;;;;5017840;28;20078;-69
2023/03/08 01:53:32;;;;;;;6.78;3.85;;;;;;;;;;5016834;28;20363;-66
2023/03/08 01:55:59;;;;;;;8.57;3.55;;;;;;;;;;5012686;28;20485;-65
2023/03/08 01:58:26;;;;;;;7.57;3.35;;;;;;;;;;5019022;28;20067;-65
2023/03/08 02:00:52;;;;;;;14.80;5.18;;;;;;;;;;5015445;28;20033;-65
2023/03/08 02:03:19;;;;;;;9.65;4.43;;;;;;;;;;5015270;28;20037;-65
2023/03/08 02:05:47;;;;;;;6.57;3.65;;;;;;;;;;5018097;28;20025;-65
2023/03/08 02:08:13;;;;;;;10.38;3.80;;;;;;;;;;5015724;28;20482;-66
2023/03/08 02:10:40;;;;;;;7.03;4.13;;;;;;;;;;5015128;28;20124;-64
2023/03/08 02:13:07;;;;;;;12.60;5.75;;;;;;;;;;5015736;28;20049;-69
2023/03/08 02:15:34;;;;;;;11.02;5.15;;;;;;;;;;5010991;28;20041;-64
2023/03/08 02:18:00;;;;;;;9.23;4.20;;;;;;;;;;5014554;28;20049;-65
2023/03/08 02:20:32;;;;;;;7.65;4.07;;;;;;;;;;5014245;28;20046;-65
2023/03/08 02:23:15;;;;;;;8.27;4.32;;;;;;;;;;5017445;28;20042;-65
2023/03/08 02:25:49;;;;;;;14.70;5.10;;;;;;;;;;5024479;28;20037;-64
2023/03/08 02:28:15;;;;;;;;;;;;;;;;;;5019595;28;20080;-66
2023/03/08 02:30:42;;;;;;;12.05;6.10;;;;;;;;;;5014217;28;20440;-65
2023/03/08 02:33:08;;;;;;;14.10;6.15;;;;;;;;;;5016016;28;20506;-64
2023/03/08 02:35:37;;;;;;;5.88;3.60;;;;;;;;;;5015309;28;20033;-66
2023/03/08 02:38:05;;;;;;;10.88;5.03;;;;;;;;;;5015855;28;20037;-66
2023/03/08 02:40:31;;;;;;;8.02;3.88;;;;;;;;;;5009749;28;20081;-64
2023/03/08 02:42:58;;;;;;;20.58;5.38;;;;;;;;;;5015888;28;20566;-65
2023/03/08 02:45:25;;;;;;;7.57;4.10;;;;;;;;;;5013450;28;20135;-66
2023/03/08 02:47:51;;;;;;;8.48;3.80;;;;;;;;;;5017913;28;20572;-65
2023/03/08 02:50:18;;;;;;;12.07;5.88;;;;;;;;;;5018341;28;20037;-66
2023/03/08 02:52:45;;;;;;;15.30;6.40;;;;;;;;;;5014584;28;20053;-69
2023/03/08 02:55:13;;;;;;;6.97;3.97;;;;;;;;;;5014438;28;20111;-67
2023/03/08 02:57:40;;;;;;;11.90;4.60;;;;;;;;;;5013220;28;20479;-67
2023/03/08 03:00:07;;;;;;;6.35;4.00;;;;;;;;;;5014107;28;20045;-67
2023/03/08 03:02:34;;;;;;;8.32;5.20;;;;;;;;;;5014495;28;20133;-68
2023/03/08 03:05:03;;;;;;;12.43;3.75;;;;;;;;;;5015289;28;20041;-64
2023/03/08 03:07:29;;;;;;;9.40;6.25;;;;;;;;;;5015188;28;20498;-65
2023/03/08 03:09:56;;;;;;;14.90;4.72;;;;;;;;;;5014896;28;20042;-64
2023/03/08 03:12:23;;;;;;;13.57;5.43;;;;;;;;;;5015050;28;20057;-66
2023/03/08 03:14:49;;;;;;;6.47;3.05;;;;;;;;;;5015105;28;20044;-66
2023/03/08 03:17:16;;;;;;;7.22;3.58;;;;;;;;;;5035223;28;20057;-64
2023/03/08 03:19:42;;;;;;;11.85;5.18;;;;;;;;;;5029084;28;20190;-66
2023/03/08 03:22:09;;;;;;;8.88;5.00;;;;;;;;;;5025384;28;20052;-66
2023/03/08 03:24:36;;;;;;;8.15;4.57;;;;;;;;;;5022829;28;20044;-66
2023/03/08 03:27:02;;;;;;;8.60;5.22;;;;;;;;;;5027554;28;20033;-66
2023/03/08 03:29:29;;;;;;;10.60;5.13;;;;;;;;;;5019824;28;20048;-66
2023/03/08 03:31:56;;;;;;;13.52;5.60;;;;;;;;;;5013958;28;20048;-66
2023/03/08 03:34:23;;;;;;;8.32;5.20;;;;;;;;;;5013116;28;20064;-66
2023/03/08 03:36:49;;;;;;;14.35;4.72;;;;;;;;;;5015441;28;20038;-66
2023/03/08 03:39:16;;;;;;;16.95;5.95;;;;;;;;;;5013502;28;20171;-66
2023/03/08 03:41:42;;;;;;;9.70;4.07;;;;;;;;;;5013172;28;20057;-66
2023/03/08 03:44:09;;;;;;;8.68;4.63;;;;;;;;;;5002085;28;20048;-66
2023/03/08 03:46:36;;;;;;;6.35;2.97;;;;;;;;;;5000744;28;20033;-65
2023/03/08 03:49:03;;;;;;;9.68;4.88;;;;;;;;;;5011938;28;20057;-64
2023/03/08 03:51:29;;;;;;;9.05;5.22;;;;;;;;;;5012628;28;20042;-65
2023/03/08 03:53:57;;;;;;;7.85;4.10;;;;;;;;;;5013219;28;20054;-66
2023/03/08 03:56:25;;;;;;;9.07;5.00;;;;;;;;;;5012090;28;20723;-66
2023/03/08 03:58:52;;;;;;;7.28;3.47;;;;;;;;;;5011118;28;20087;-65
2023/03/08 04:01:20;;;;;;;6.32;4.05;;;;;;;;;;5015463;28;20077;-66
2023/03/08 04:03:47;;;;;;;10.38;5.15;;;;;;;;;;5027438;28;20107;-66
2023/03/08 04:06:19;;;;;;;7.95;4.43;;;;;;;;;;5015570;28;20044;-66
2023/03/08 04:08:46;;;;;;;8.98;4.20;;;;;;;;;;5028786;28;20501;-67
2023/03/08 04:11:17;;;;;;;11.82;5.70;;;;;;;;;;5031231;28;20033;-66
2023/03/08 04:13:44;;;;;;;7.97;4.40;;;;;;;;;;5026110;28;20107;-66
2023/03/08 04:16:15;;;;;;;9.55;4.18;;;;;;;;;;5015384;28;20437;-66
2023/03/08 04:18:42;;;;;;;5.75;3.80;;;;;;;;;;5013470;28;20037;-66
2023/03/08 04:21:09;;;;;;;8.18;4.75;;;;;;;;;;5018218;28;20429;-66
2023/03/08 04:23:36;;;;;;;29.42;5.35;;;;;;;;;;5017249;28;20029;-66
2023/03/08 04:26:03;;;;;;;6.05;4.15;;;;;;;;;;5014609;28;20033;-66
2023/03/08 04:28:30;;;;;;;6.97;4.53;;;;;;;;;;5016994;28;21697;-65
2023/03/08 04:30:57;;;;;;;11.27;4.95;;;;;;;;;;5012229;28;20608;-66
2023/03/08 04:33:24;;;;;;;18.40;4.93;;;;;;;;;;5016797;28;20152;-67
2023/03/08 04:35:50;;;;;;;7.97;3.97;;;;;;;;;;5017828;28;20144;-65
2023/03/08 04:38:17;;;;;;;7.10;4.43;;;;;;;;;;5016398;28;20044;-66
2023/03/08 04:41:01;;;;;;;20.65;5.13;;;;;;;;;;5016183;28;20501;-65
2023/03/08 04:43:28;;;;;;;18.95;5.63;;;;;;;;;;5016158;28;20076;-66
2023/03/08 04:45:55;;;;;;;12.02;6.72;;;;;;;;;;5018231;28;20037;-66
2023/03/08 04:48:22;;;;;;;8.02;4.00;;;;;;;;;;5015399;28;20037;-64
2023/03/08 04:50:53;;;;;;;14.15;5.25;;;;;;;;;;5017129;28;20042;-65
2023/03/08 04:53:19;;;;;;;12.95;6.38;;;;;;;;;;5016855;28;20057;-67
2023/03/08 04:55:46;;;;;;;8.85;4.75;;;;;;;;;;5016976;28;20040;-66
2023/03/08 04:58:13;;;;;;;13.75;4.95;;;;;;;;;;5016828;28;20038;-65
2023/03/08 05:00:39;;;;;;;12.85;5.90;;;;;;;;;;5017427;28;20462;-66
2023/03/08 05:03:06;;;;;;;16.45;5.70;;;;;;;;;;5029274;28;20041;-66
2023/03/08 05:05:33;;;;;;;10.18;4.65;;;;;;;;;;5027084;28;20041;-65
2023/03/08 05:08:03;;;;;;;7.28;4.47;;;;;;;;;;5023241;28;20271;-66
2023/03/08 05:10:30;;;;;;;8.02;3.70;;;;;;;;;;5032456;28;20037;-65
2023/03/08 05:12:56;;;;;;;16.05;4.82;;;;;;;;;;5024415;28;20053;-65
2023/03/08 05:15:23;;;;;;;11.40;5.05;;;;;;;;;;5016937;28;20854;-64
2023/03/08 05:17:50;;;;;;;9.88;5.10;;;;;;;;;;5016162;28;20116;-65
2023/03/08 05:20:17;;;;;;;10.30;5.32;;;;;;;;;;5014502;28;20188;-65
2023/03/08 05:22:43;;;;;;;9.10;5.03;;;;;;;;;;5012325;28;20083;-66
2023/03/08 05:25:10;;;;;;;8.77;4.97;;;;;;;;;;5017202;28;20080;-65
2023/03/08 05:27:37;;;;;;;7.75;4.93;;;;;;;;;;5031646;28;21039;-67
2023/03/08 05:30:04;;;;;;;8.10;4.35;;;;;;;;;;5016272;28;20148;-65
2023/03/08 05:32:31;;;;;;;10.32;5.55;;;;;;;;;;5015818;28;20049;-66
2023/03/08 05:34:58;;;;;;;15.50;6.35;;;;;;;;;;5016357;28;20586;-66
2023/03/08 05:37:25;;;;;;;8.48;4.80;;;;;;;;;;5013369;28;20155;-67
2023/03/08 05:39:52;;;;;;;9.75;5.53;;;;;;;;;;5015827;28;20083;-66
2023/03/08 05:42:19;;;;;;;9.63;5.03;;;;;;;;;;5015232;28;20109;-67
2023/03/08 05:44:46;;;;;;;14.77;6.45;;;;;;;;;;5036513;28;20505;-67
2023/03/08 05:47:12;;;;;;;12.82;6.55;;;;;;;;;;5038002;28;20037;-66
2023/03/08 05:49:39;;;;;;;16.50;7.60;;;;;;;;;;5035451;28;20037;-66
2023/03/08 05:52:06;;;;;;;10.13;6.25;;;;;;;;;;5037162;28;20079;-66
2023/03/08 05:54:32;;;;;;;13.98;6.20;;;;;;;;;;5036661;28;20053;-66
2023/03/08 05:56:59;;;;;;;16.75;6.82;;;;;;;;;;5035757;28;20124;-66
2023/03/08 05:59:26;;;;;;;8.27;5.10;;;;;;;;;;5034894;28;20123;-66
2023/03/08 06:01:52;;;;;;;17.10;7.20;;;;;;;;;;5037071;28;20069;-65
2023/03/08 06:04:19;;;;;;;10.63;5.38;;;;;;;;;;5035925;28;20115;-69
2023/03/08 06:06:46;;;;;;;14.30;5.53;;;;;;;;;;5018350;28;20037;-65
2023/03/08 06:09:14;;;;;;;9.93;5.20;;;;;;;;;;5036048;28;20068;-66
2023/03/08 06:11:41;;;;;;;16.65;7.30;;;;;;;;;;5031875;28;20039;-66
2023/03/08 06:14:07;;;;;;;11.32;5.15;;;;;;;;;;5035970;28;20053;-66
2023/03/08 06:16:34;;;;;;;12.77;6.15;;;;;;;;;;5035764;28;20029;-67
2023/03/08 06:19:01;;;;;;;20.88;8.20;;;;;;;;;;5035429;28;20086;-66
2023/03/08 06:21:28;;;;;;;15.30;7.65;;;;;;;;;;5036247;28;20033;-66
2023/03/08 06:23:55;;;;;;;10.50;6.00;;;;;;;;;;5036019;28;20474;-66
2023/03/08 06:26:21;;;;;;;10.85;6.13;;;;;;;;;;5035557;28;20037;-65
2023/03/08 06:28:48;;;;;;;12.43;5.95;;;;;;;;;;5017826;28;20045;-65
2023/03/08 06:31:16;;;;;;;12.90;5.55;;;;;;;;;;5034152;28;20645;-66
2023/03/08 06:33:43;;;;;;;13.98;6.75;;;;;;;;;;5034871;28;20097;-67
2023/03/08 06:36:12;;;;;;;14.65;7.05;;;;;;;;;;5036717;28;20036;-65
2023/03/08 06:38:39;;;;;;;11.68;6.95;;;;;;;;;;5033789;28;21758;-69
2023/03/08 06:41:07;;;;;;;14.88;5.03;;;;;;;;;;5036291;28;20073;-67
2023/03/08 06:43:34;;;;;;;18.13;5.85;;;;;;;;;;5035303;28;20037;-68
2023/03/08 06:46:05;;;;;;;19.15;7.88;;;;;;;;;;5035381;28;20373;-66
2023/03/08 06:48:31;;;;;;;12.15;5.82;;;;;;;;;;5034694;28;20045;-67
2023/03/08 06:50:58;;;;;;;15.18;6.45;;;;;;;;;;5036210;28;20061;-68
2023/03/08 06:53:45;;;;;;;13.23;5.30;;;;;;;;;;4973742;28;20168;-66
2023/03/08 06:56:12;;;;;;;22.00;6.60;;;;;;;;;;4974150;28;20134;-67
2023/03/08 06:58:39;;;;;;;14.80;5.75;;;;;;;;;;4973921;28;20053;-67
2023/03/08 07:01:08;;;;;;;13.77;5.80;;;;;;;;;;4977658;28;20541;-67
2023/03/08 07:03:35;;;;;;;12.48;6.07;;;;;;;;;;4988938;28;20038;-68
2023/03/08 07:06:06;;;;;;;9.73;5.03;;;;;;;;;;5002384;28;20045;-71
2023/03/08 07:08:33;;;;;;;10.38;5.88;;;;;;;;;;4993259;28;20034;-67
2023/03/08 07:11:00;;;;;;;33.35;6.38;;;;;;;;;;4979515;28;20038;-67
2023/03/08 07:13:27;;;;;;;16.27;6.28;;;;;;;;;;4977447;28;20050;-66
2023/03/08 07:15:54;;;;;;;12.63;5.35;;;;;;;;;;4974929;28;20069;-66
2023/03/08 07:18:21;;;;;;;12.70;5.47;;;;;;;;;;4972739;28;20152;-67
2023/03/08 07:20:55;;;;;;;8.73;5.13;;;;;;;;;;4974060;28;20038;-67
2023/03/08 07:23:22;;;;;;;14.75;7.07;;;;;;;;;;4973122;28;20057;-66
2023/03/08 07:25:48;;;;;;;17.48;7.78;;;;;;;;;;5033190;28;20045;-66
2023/03/08 07:28:15;;;;;;;13.95;5.97;;;;;;;;;;5035980;28;20149;-67
2023/03/08 07:30:47;;;;;;;12.27;5.80;;;;;;;;;;5035836;28;20041;-66
2023/03/08 07:33:14;;;;;;;7.88;5.03;;;;;;;;;;5035946;28;20120;-67
2023/03/08 07:35:41;;;;;;;17.10;7.68;;;;;;;;;;5035205;28;20056;-66
2023/03/08 07:38:07;;;;;;;19.13;8.63;;;;;;;;;;5032123;28;20405;-64
2023/03/08 07:40:34;;;;;;;14.35;5.97;;;;;;;;;;5035931;28;20037;-66
2023/03/08 07:43:01;;;;;;;17.17;6.57;;;;;;;;;;5036042;28;20045;-68
2023/03/08 07:45:27;;;;;;;18.35;8.20;;;;;;;;;;5034246;28;20041;-65
2023/03/08 07:47:54;;;;;;;11.25;5.78;;;;;;;;;;5034801;28;20112;-66
2023/03/08 07:50:21;;;;;;;17.77;5.32;;;;;;;;;;5010628;28;20041;-70
2023/03/08 07:52:48;;;;;;;10.82;5.78;;;;;;;;;;5034686;28;20055;-66
2023/03/08 07:55:15;;;;;;;10.80;6.15;;;;;;;;;;5035658;28;20037;-66
2023/03/08 07:57:42;;;;;;;15.52;6.97;;;;;;;;;;5034630;28;20052;-66
2023/03/08 08:00:08;;;;;;;14.98;5.85;;;;;;;;;;5032543;28;20164;-66
2023/03/08 08:02:36;;;;;;;13.30;6.15;;;;;;;;;;5034375;28;20083;-65
2023/03/08 08:05:03;;;;;;;16.02;5.78;;;;;;;;;;5031324;28;20056;-66
2023/03/08 08:07:30;;;;;;;13.90;6.28;;;;;;;;;;5016330;28;20053;-65
2023/03/08 08:09:59;;;;;;;13.55;6.65;;;;;;;;;;5033323;28;20053;-66
2023/03/08 08:12:26;;;;;;;11.63;5.28;;;;;;;;;;5034317;28;20040;-66
2023/03/08 08:14:56;;;;;;;12.77;6.40;;;;;;;;;;5034610;28;20569;-66
2023/03/08 08:17:25;;;;;;;19.10;7.28;;;;;;;;;;5033723;28;20045;-65
2023/03/08 08:19:53;;;;;;;14.65;5.70;;;;;;;;;;5032426;28;20471;-65
2023/03/08 08:22:23;;;;;;;21.15;8.75;;;;;;;;;;5032298;28;21696;-66
2023/03/08 08:24:50;;;;;;;19.70;6.80;;;;;;;;;;5015062;28;20043;-63
2023/03/08 08:27:18;;;;;;;21.02;5.88;;;;;;;;;;5016019;28;20490;-65
2023/03/08 08:29:48;;;;;;;15.10;7.40;;;;;;;;;;5023128;28;20546;-65
2023/03/08 08:32:18;;;;;;;10.70;4.97;;;;;;;;;;5018464;28;20041;-63
2023/03/08 08:34:47;;;;;;;14.40;7.93;;;;;;;;;;5020150;28;20053;-64
2023/03/08 08:37:16;;;;;;;14.27;6.57;;;;;;;;;;5020775;28;20041;-64
2023/03/08 08:39:44;;;;;;;14.07;6.88;;;;;;;;;;5015840;28;20041;-65
2023/03/08 08:42:11;;;;;;;12.68;6.15;;;;;;;;;;5019043;28;20601;-66
2023/03/08 08:44:39;;;;;;;11.05;5.75;;;;;;;;;;5014121;28;20038;-65
2023/03/08 08:47:07;;;;;;;21.88;5.97;;;;;;;;;;5025107;28;20040;-63
2023/03/08 08:49:35;;;;;;;12.80;6.55;;;;;;;;;;5030423;28;20052;-62
2023/03/08 08:52:02;;;;;;;11.65;5.85;;;;;;;;;;5010811;28;20037;-65
2023/03/08 08:54:32;;;;;;;16.35;7.40;;;;;;;;;;5013766;28;20053;-67
2023/03/08 08:57:00;;;;;;;13.73;6.78;;;;;;;;;;5012963;28;20042;-66
2023/03/08 08:59:28;;;;;;;12.95;6.28;;;;;;;;;;5013036;28;20037;-66
2023/03/08 09:01:55;;;;;;;10.82;5.20;;;;;;;;;;5014612;28;20518;-65
2023/03/08 09:04:22;;;;;;;20.98;6.93;;;;;;;;;;5012966;28;20132;-65
2023/03/08 09:06:49;;;;;;;10.57;5.45;;;;;;;;;;4996786;28;20052;-65
2023/03/08 09:09:17;;;;;;;12.35;5.70;;;;;;;;;;5011721;28;20152;-66
2023/03/08 09:11:46;;;;;;;22.65;5.60;;;;;;;;;;4995956;28;20041;-63
2023/03/08 09:14:13;;;;;;;15.68;6.88;;;;;;;;;;5012553;28;20061;-66
2023/03/08 09:16:40;;;;;;;9.15;5.15;;;;;;;;;;5012427;28;20052;-66
2023/03/08 09:19:08;;;;;;;14.55;5.50;;;;;;;;;;5012320;28;20061;-67
2023/03/08 09:21:34;;;;;;;12.43;6.18;;;;;;;;;;5013522;28;20199;-65
2023/03/08 09:24:02;;;;;;;15.73;6.10;;;;;;;;;;5033825;28;20426;-67
2023/03/08 09:26:32;;;;;;;9.13;5.00;;;;;;;;;;5036020;28;20048;-68
2023/03/08 09:29:03;;;;;;;14.63;6.47;;;;;;;;;;5035163;28;20033;-65
2023/03/08 09:31:30;;;;;;;12.77;5.43;;;;;;;;;;5036135;28;20377;-65
2023/03/08 09:33:57;;;;;;;13.25;5.35;;;;;;;;;;5038091;28;20056;-65
2023/03/08 09:36:27;;;;;;;17.05;8.10;;;;;;;;;;5019262;28;20368;-65
2023/03/08 09:38:54;;;;;;;10.93;6.05;;;;;;;;;;5013353;28;20070;-65
2023/03/08 09:41:21;;;;;;;12.45;6.97;;;;;;;;;;5037285;28;20112;-65
2023/03/08 09:44:08;;;;;;;11.35;6.32;;;;;;;;;;5039033;28;20041;-65
2023/03/08 09:46:39;;;;;;;10.68;4.93;;;;;;;;;;5021993;28;20123;-66
2023/03/08 09:49:12;;;;;;;12.73;6.80;;;;;;;;;;5036291;28;20086;-66
2023/03/08 09:51:42;;;;;;;14.38;5.53;;;;;;;;;;5018934;28;20120;-66
2023/03/08 09:54:12;;;;;;;12.82;5.30;;;;;;;;;;5037747;28;20056;-66
2023/03/08 09:56:42;;;;;;;15.02;6.93;;;;;;;;;;5036190;28;20041;-67
2023/03/08 09:59:24;;;;;;;10.25;6.05;;;;;;;;;;5036697;28;20029;-66
2023/03/08 10:01:59;;;;;;;11.20;5.53;;;;;;;;;;5037343;28;20132;-65
2023/03/08 10:04:26;;;;;;;15.15;5.35;;;;;;;;;;5011167;28;20135;-66
2023/03/08 10:07:11;;;;;;;12.30;5.38;;;;;;;;;;5027183;28;20104;-66
2023/03/08 10:09:40;;;;;;;10.65;5.90;;;;;;;;;;5028058;28;20042;-66
2023/03/08 10:12:16;;;;;;;12.18;6.82;;;;;;;;;;5017003;28;20569;-65
2023/03/08 10:14:45;;;;;;;15.90;8.25;;;;;;;;;;5023319;28;20048;-66
2023/03/08 10:17:15;;;;;;;20.80;8.38;;;;;;;;;;5027862;28;20071;-66
2023/03/08 10:20:00;;;;;;;15.40;7.10;;;;;;;;;;4996528;28;20048;-65
2023/03/08 10:22:31;;;;;;;19.35;7.82;;;;;;;;;;5034123;28;20129;-65
2023/03/08 10:25:00;;;;;;;10.43;6.53;;;;;;;;;;5026261;28;20180;-66
2023/03/08 10:27:29;;;;;;;14.10;6.40;;;;;;;;;;5019592;28;20111;-66
2023/03/08 10:29:56;;;;;;;13.15;7.57;;;;;;;;;;5021375;28;20037;-64
2023/03/08 10:32:23;;;;;;;18.13;8.73;;;;;;;;;;5021017;28;20037;-66
2023/03/08 10:34:51;;;;;;;11.75;7.55;;;;;;;;;;5027598;28;20044;-64
2023/03/08 10:37:23;;;;;;;12.90;7.55;;;;;;;;;;5021730;28;20697;-66
2023/03/08 10:39:54;;;;;;;10.52;6.60;;;;;;;;;;5031317;28;20052;-65
2023/03/08 10:42:22;;;;;;;22.67;8.68;;;;;;;;;;5023574;28;20113;-65
2023/03/08 10:44:51;;;;;;;18.95;9.50;;;;;;;;;;5020344;28;21487;-66
2023/03/08 10:47:37;;;;;;;10.52;6.68;;;;;;;;;;5011394;28;20066;-66
2023/03/08 10:50:18;;;;;;;23.92;10.82;;;;;;;;;;5037071;28;20044;-68
2023/03/08 10:52:45;;;;;;;24.15;10.18;;;;;;;;;;5037824;28;20056;-67
2023/03/08 10:55:14;;;;;;;27.98;10.75;;;;;;;;;;5034966;28;20036;-65
2023/03/08 10:57:44;;;;;;;19.05;8.98;;;;;;;;;;5037708;28;20143;-65
2023/03/08 11:00:20;;;;;;;28.90;12.70;;;;;;;;;;5030864;28;20041;-64
2023/03/08 11:02:47;;;;;;;16.88;7.68;;;;;;;;;;5038163;28;20059;-64
2023/03/08 11:05:22;;;;;;;22.00;9.32;;;;;;;;;;5032505;28;20102;-66
2023/03/08 11:07:58;;;;;;;15.75;7.47;;;;;;;;;;5036508;28;20067;-66
2023/03/08 11:10:29;;;;;;;18.13;8.90;;;;;;;;;;5036373;28;20188;-65
2023/03/08 11:13:02;;;;;;;20.90;7.05;;;;;;;;;;5036336;28;20421;-67
2023/03/08 11:15:30;;;;;;;12.75;7.20;;;;;;;;;;5035869;28;20646;-65
2023/03/08 11:17:57;;;;;;;14.02;8.55;;;;;;;;;;5035856;28;20160;-66
2023/03/08 11:20:28;;;;;;;29.35;7.07;;;;;;;;;;5035579;28;20028;-66
2023/03/08 11:23:05;;;;;;;10.05;6.43;;;;;;;;;;5035348;28;20506;-66
2023/03/08 11:25:35;;;;;;;15.45;7.30;;;;;;;;;;5035877;28;20778;-65
2023/03/08 11:28:05;;;;;;;17.75;8.48;;;;;;;;;;5035152;28;20506;-67
2023/03/08 11:30:40;;;;;;;14.68;5.43;;;;;;;;;;5032051;28;20094;-65
2023/03/08 11:33:31;;;;;;;8.90;5.50;;;;;;;;;;5037055;28;20068;-64
2023/03/08 11:36:11;;;;;;;13.98;8.38;;;;;;;;;;5035763;28;20580;-64
2023/03/08 11:38:38;;;;;;;12.35;7.25;;;;;;;;;;5011998;28;20071;-65
2023/03/08 11:41:14;;;;;;;28.05;8.02;;;;;;;;;;5036205;28;20086;-67
2023/03/08 11:43:59;;;;;;;14.65;7.22;;;;;;;;;;5018563;28;20812;-66
2023/03/08 11:46:25;;;;;;;19.27;7.93;;;;;;;;;;5036833;28;20045;-66
2023/03/08 11:48:58;;;;;;;15.20;6.05;;;;;;;;;;5037264;28;20126;-66
2023/03/08 11:51:57;;;;;;;16.10;7.68;;;;;;;;;;5036330;28;20123;-66
2023/03/08 11:54:33;;;;;;;9.77;5.95;;;;;;;;;;4981680;28;20049;-66
2023/03/08 11:57:01;;;;;;;13.00;5.20;;;;;;;;;;5049072;28;20044;-63
2023/03/08 11:59:27;;;;;;;15.27;7.20;;;;;;;;;;5058269;28;20068;-65
2023/03/08 12:02:06;;;;;;;11.35;5.88;;;;;;;;;;5049554;28;20489;-65
2023/03/08 12:04:48;;;;;;;11.93;6.25;;;;;;;;;;5024620;28;20041;-65
2023/03/08 12:07:44;;;;;;;10.57;5.68;;;;;;;;;;5020591;28;20056;-64
2023/03/08 12:10:22;;;;;;;12.15;5.20;;;;;;;;;;5003941;28;20064;-64
2023/03/08 12:12:49;;;;;;;12.05;6.13;;;;;;;;;;5018693;28;20057;-64
2023/03/08 12:15:44;;;;;;;7.72;4.78;;;;;;;;;;5036531;28;20045;-62
2023/03/08 12:18:11;;;;;;;7.68;4.45;;;;;;;;;;4946195;28;20055;-67
2023/03/08 12:20:39;;;;;;;9.88;5.07;;;;;;;;;;5034656;28;20777;-66
2023/03/08 12:23:06;;;;;;;12.45;7.10;;;;;;;;;;5018126;28;20434;-65
2023/03/08 12:25:35;;;;;;;14.60;6.53;;;;;;;;;;5034693;28;20037;-66
2023/03/08 12:28:06;;;;;;;11.18;5.38;;;;;;;;;;5037360;28;20461;-65
2023/03/08 12:30:44;;;;;;;15.38;6.32;;;;;;;;;;5020674;28;20120;-66
2023/03/08 12:33:12;;;;;;;14.05;5.72;;;;;;;;;;5020462;28;20498;-64
2023/03/08 12:35:50;;;;;;;14.52;6.50;;;;;;;;;;5038822;28;20323;-65
2023/03/08 12:38:19;;;;;;;15.45;6.47;;;;;;;;;;5037790;28;20436;-65
2023/03/08 12:40:45;;;;;;;9.85;5.78;;;;;;;;;;5039032;28;20426;-65
2023/03/08 12:43:21;;;;;;;22.23;7.93;;;;;;;;;;5038356;28;20036;-65
2023/03/08 12:45:59;;;;;;;18.90;8.02;;;;;;;;;;5036725;28;20064;-65
2023/03/08 12:48:29;;;;;;;11.07;6.13;;;;;;;;;;5036854;28;20045;-65
2023/03/08 12:51:15;;;;;;;8.63;5.15;;;;;;;;;;5037688;28;20060;-65
2023/03/08 12:53:44;;;;;;;9.73;5.13;;;;;;;;;;5037159;28;20037;-65
2023/03/08 12:56:11;;;;;;;9.98;5.70;;;;;;;;;;5038755;28;20041;-64
2023/03/08 12:58:49;;;;;;;10.55;5.65;;;;;;;;;;5036764;28;20389;-65
2023/03/08 13:01:35;;;;;;;10.23;5.10;;;;;;;;;;5038827;28;20041;-66
2023/03/08 13:04:28;;;;;;;7.85;4.43;;;;;;;;;;4979726;28;20058;-64
2023/03/08 13:06:55;;;;;;;17.98;7.85;;;;;;;;;;4985489;28;20057;-64
2023/03/08 13:09:32;;;;;;;21.02;9.13;;;;;;;;;;4978399;28;20049;-65
2023/03/08 13:12:13;;;;;;;18.45;6.97;;;;;;;;;;4982488;28;20069;-67
2023/03/08 13:14:47;;;;;;;14.77;6.97;;;;;;;;;;4980594;28;20573;-67
2023/03/08 13:17:31;;;;;;;17.08;7.50;;;;;;;;;;4982312;28;20054;-67
2023/03/08 13:20:00;;;;;;;17.63;7.63;;;;;;;;;;4982393;28;20117;-64
2023/03/08 13:22:36;;;;;;;13.75;6.45;;;;;;;;;;4982191;28;20042;-65
2023/03/08 13:25:08;;;;;;;10.90;4.43;;;;;;;;;;4978603;28;20038;-64
2023/03/08 13:27:48;;;;;;;9.48;4.32;;;;;;;;;;4979946;28;20501;-64
2023/03/08 13:30:18;;;;;;;11.63;5.60;;;;;;;;;;4983281;28;20690;-65
2023/03/08 13:32:45;;;;;;;11.73;5.35;;;;;;;;;;4984449;28;20045;-63
2023/03/08 13:35:14;;;;;;;12.32;5.70;;;;;;;;;;5022928;28;20086;-65
2023/03/08 13:37:41;;;;;;;16.00;4.80;;;;;;;;;;5058055;28;20041;-67
2023/03/08 13:40:20;;;;;;;11.30;5.03;;;;;;;;;;5062274;28;20032;-65
2023/03/08 13:43:08;;;;;;;13.80;6.63;;;;;;;;;;5061522;28;20025;-64
2023/03/08 13:45:35;;;;;;;14.85;6.35;;;;;;;;;;5053879;28;20045;-66
2023/03/08 13:48:05;;;;;;;17.30;6.35;;;;;;;;;;5042034;28;20125;-64
2023/03/08 13:50:36;;;;;;;16.00;8.18;;;;;;;;;;5038378;28;20371;-64
2023/03/08 13:53:07;;;;;;;12.43;6.88;;;;;;;;;;5038601;28;20152;-63
2023/03/08 13:55:36;;;;;;;13.00;5.63;;;;;;;;;;5038521;28;20037;-65
2023/03/08 13:58:02;;;;;;;9.93;5.00;;;;;;;;;;5037486;28;20306;-64
2023/03/08 14:00:30;;;;;;;18.35;6.90;;;;;;;;;;5034568;28;20041;-64
2023/03/08 14:02:56;;;;;;;13.23;5.72;;;;;;;;;;5036320;28;20048;-64
2023/03/08 14:05:25;;;;;;;8.60;4.72;;;;;;;;;;5036544;28;20036;-64
2023/03/08 14:08:02;;;;;;;12.27;6.30;;;;;;;;;;5035990;28;20045;-64
2023/03/08 14:10:31;;;;;;;16.67;6.20;;;;;;;;;;5030759;28;20205;-64
2023/03/08 14:12:58;;;;;;;9.20;4.82;;;;;;;;;;5033863;28;20395;-65
2023/03/08 14:15:25;;;;;;;17.38;5.18;;;;;;;;;;5035812;28;20029;-65
2023/03/08 14:17:52;;;;;;;7.50;4.18;;;;;;;;;;5035630;28;20077;-65
2023/03/08 14:20:22;;;;;;;14.40;4.50;;;;;;;;;;5036395;28;20147;-65
2023/03/08 14:22:50;;;;;;;7.97;3.15;;;;;;;;;;5036239;28;20037;-65
2023/03/08 14:25:24;;;;;;;13.50;4.93;;;;;;;;;;5036409;28;20043;-65
2023/03/08 14:27:51;;;;;;;8.93;3.97;;;;;;;;;;5036545;28;20128;-65
2023/03/08 14:30:20;;;;;;;8.45;4.30;;;;;;;;;;5033659;28;21002;-65
2023/03/08 14:32:56;;;;;;;9.32;3.80;;;;;;;;;;5036610;28;20061;-65
2023/03/08 14:35:24;;;;;;;6.97;2.78;;;;;;;;;;5035309;28;20037;-66
2023/03/08 14:37:54;;;;;;;10.05;3.88;;;;;;;;;;5035510;28;20568;-66
2023/03/08 14:40:24;;;;;;;8.38;3.63;;;;;;;;;;5036298;28;20103;-66
2023/03/08 14:42:54;;;;;;;6.82;3.15;;;;;;;;;;5036284;28;20037;-66
2023/03/08 14:45:22;;;;;;;6.40;3.20;;;;;;;;;;5035773;28;20097;-66